Euro Snow — VQGH9 — position and weather

sailwx.info

Track history (hours):
 
Tides and Currents Weather Stations Pressure Air Temp Water Temp Dewpoint Dewpoint Depression Visibility Wind Speed Wind Dir Waves Ship Positions

Euro Snow

Last reported at 2014-Jul-29 12:24 UTC. Time now 2014-Jul-29 21:00 UTC.
Position N 55°19' E 001°12'.

Length 133 m; draft 7 m.

Type: Cargo ship. MMSI: 235613000.

Date/timePositionNaut miles runAvg speedWind from/ knotsBaromVisibWave heightAir tempDewpointWater temp
2014-Jul-29 12:24N 55°19' E 001°12'1416.8
2014-Jul-29 11:33N 55°13' E 000°49'3316.7
2014-Jul-29 09:33N 54°58' W 000°03'2016.7
2014-Jul-29 08:20N 54°49' W 000°35'1316.9
2014-Jul-29 07:33N 54°43' W 000°55'11 7.2
2014-Jul-29 06:05N 54°36' W 001°09'0 0.0
2014-Jul-29 05:23N 54°36' W 001°09'2 0.2
2014-Jul-28 18:33N 54°38' W 001°09'1414.0
2014-Jul-28 17:33N 54°35' W 000°45'1414.6
2014-Jul-28 16:33N 54°28' W 000°24'1515.0
2014-Jul-28 15:33N 54°17' W 000°07'1615.7
2014-Jul-28 14:33N 54°05' E 000°11'1716.9
2014-Jul-28 13:33N 53°52' E 000°30'1817.8
2014-Jul-28 12:33N 53°39' E 000°50'1818.0
2014-Jul-28 11:33N 53°24' E 001°06'1716.8
2014-Jul-28 10:33N 53°09' E 001°20'1515.1
2014-Jul-28 09:33N 52°57' E 001°35'1413.9
2014-Jul-28 08:33N 52°47' E 001°51'1312.6
2014-Jul-28 07:33N 52°34' E 001°55'1914.6
2014-Jul-28 06:15N 52°16' E 001°45'1116.2
2014-Jul-28 05:33N 52°06' E 001°40'1514.6
2014-Jul-28 04:33N 51°56' E 001°23'3 3.2
2014-Jul-28 03:32N 51°57' E 001°18'0 0.0
2014-Jul-28 02:31N 51°57' E 001°18'0 0.0
2014-Jul-28 01:31N 51°57' E 001°18'0 0.0
2014-Jul-28 00:31N 51°57' E 001°18'0 0.0
2014-Jul-27 23:31N 51°57' E 001°18'0 0.0
2014-Jul-27 22:32N 51°57' E 001°18'0 0.0
2014-Jul-27 21:31N 51°57' E 001°18'0 0.0
2014-Jul-27 20:32N 51°57' E 001°18'0 0.0
2014-Jul-27 19:32N 51°57' E 001°18'0 0.0
2014-Jul-27 18:33N 51°57' E 001°18'3 2.8
2014-Jul-27 17:34N 51°56' E 001°22'7 7.2
2014-Jul-27 16:34N 51°57' E 001°33'5 5.1
2014-Jul-27 15:34N 51°52' E 001°36'1010.3
2014-Jul-27 14:33N 51°45' E 001°48'1413.6
2014-Jul-27 13:33N 51°32' E 001°47'1414.0
2014-Jul-27 12:33N 51°18' E 001°42'1312.6
2014-Jul-27 11:34N 51°05' E 001°38'3716.5
2014-Jul-27 09:18N 50°35' E 001°05'1316.8
2014-Jul-27 08:31N 50°28' E 000°47'1717.5
2014-Jul-27 07:33N 50°24' E 000°22'2217.0
2014-Jul-27 06:16N 50°17' W 000°11'1216.3
2014-Jul-27 05:32N 50°14' W 000°29'4714.3
2014-Jul-27 02:15N 50°01' W 001°40'9014.9
2014-Jul-26 20:11N 49°25' W 003°48'11016.5
2014-Jul-26 13:33N 48°16' W 005°57'1717.1
2014-Jul-26 12:33N 48°01' W 006°10'2016.7
2014-Jul-26 11:22N 47°43' W 006°23'50715.0
2014-Jul-25 01:29N 39°38' W 009°43'1414.5
2014-Jul-25 00:33N 39°24' W 009°43'5012.5
2014-Jul-24 20:33N 38°37' W 009°22'1414.2
2014-Jul-24 19:34N 38°43' W 009°06'0 0.0
2014-Jul-24 18:31N 38°44' W 009°06'0 0.0
2014-Jul-24 17:32N 38°44' W 009°06'0 0.0
2014-Jul-24 16:33N 38°44' W 009°06'0 0.0
2014-Jul-24 15:31N 38°44' W 009°06'0 0.0
2014-Jul-24 14:31N 38°44' W 009°06'0 0.0
2014-Jul-24 13:31N 38°44' W 009°06'0 0.0
2014-Jul-24 12:33N 38°44' W 009°06'0 0.0
2014-Jul-24 11:33N 38°44' W 009°06'0 0.0
2014-Jul-24 10:33N 38°44' W 009°06'0 0.0
2014-Jul-24 09:32N 38°44' W 009°06'0 0.0
2014-Jul-24 08:33N 38°44' W 009°06'0 0.0
2014-Jul-24 07:33N 38°44' W 009°06'2 1.7
2014-Jul-24 06:33N 38°42' W 009°08'2712.8
2014-Jul-24 04:26N 38°39' W 009°43'1615.1
2014-Jul-24 03:23N 38°55' W 009°44'156 5.1
2014-Jul-22 20:29N 41°27' W 008°58'1414.7
2014-Jul-22 19:33N 41°39' W 009°07'178 9.8
2014-Jul-22 01:26N 43°44' W 006°14'1516.5
2014-Jul-22 00:33N 43°42' W 005°54'1312.6
2014-Jul-21 23:33N 43°33' W 005°41'0 0.0
2014-Jul-21 18:34N 43°34' W 005°41'6 6.0
2014-Jul-21 17:34N 43°40' W 005°41'47013.3
2014-Jul-20 06:10N 50°29' W 000°02'1415.8
2014-Jul-20 05:18N 50°33' E 000°19'1115.0
2014-Jul-20 04:34N 50°36' E 000°36'1514.5
2014-Jul-20 03:33N 50°44' E 000°55'1815.1
2014-Jul-20 02:21N 50°55' E 001°18'1316.8
2014-Jul-20 01:33N 51°05' E 001°33'1717.4
2014-Jul-20 00:34N 51°18' E 001°51'1616.4
2014-Jul-19 23:34N 51°31' E 002°07'1615.6
2014-Jul-19 22:32N 51°43' E 002°24'2713.7
2014-Jul-19 20:33N 52°01' E 002°56'1714.9
2014-Jul-19 19:26N 52°03' E 003°23'1314.7
2014-Jul-19 18:33N 52°04' E 003°44'1414.4
2014-Jul-19 17:33N 51°59' E 004°05'2 1.5
2014-Jul-19 16:32N 51°58' E 004°03'0 0.0
2014-Jul-19 15:33N 51°58' E 004°03'0 0.0
2014-Jul-19 14:25N 51°58' E 004°03'0 0.0
2014-Jul-19 13:30N 51°58' E 004°03'0 0.0
2014-Jul-19 12:30N 51°58' E 004°03'  
Track history (hours):
 
Tides and Currents Weather Stations Pressure Air Temp Water Temp Dewpoint Dewpoint Depression Visibility Wind Speed Wind Dir Waves Ship Positions

Euro Snow

Last reported at 2014-Jul-29 12:24 UTC. Time now 2014-Jul-29 21:00 UTC.
Position N 55°19' E 001°12'.

Length 133 m; draft 7 m.

Type: Cargo ship. MMSI: 235613000.

Date/timePositionNaut miles runAvg speedWind from/ knotsBaromVisibWave heightAir tempDewpointWater temp
2014-Jul-29 12:24N 55°19' E 001°12'1416.8
2014-Jul-29 11:33N 55°13' E 000°49'3316.7
2014-Jul-29 09:33N 54°58' W 000°03'2016.7
2014-Jul-29 08:20N 54°49' W 000°35'1316.9
2014-Jul-29 07:33N 54°43' W 000°55'11 7.2
2014-Jul-29 06:05N 54°36' W 001°09'0 0.0
2014-Jul-29 05:23N 54°36' W 001°09'2 0.2
2014-Jul-28 18:33N 54°38' W 001°09'1414.0
2014-Jul-28 17:33N 54°35' W 000°45'1414.6
2014-Jul-28 16:33N 54°28' W 000°24'1515.0
2014-Jul-28 15:33N 54°17' W 000°07'1615.7
2014-Jul-28 14:33N 54°05' E 000°11'1716.9
2014-Jul-28 13:33N 53°52' E 000°30'1817.8
2014-Jul-28 12:33N 53°39' E 000°50'1818.0
2014-Jul-28 11:33N 53°24' E 001°06'1716.8
2014-Jul-28 10:33N 53°09' E 001°20'1515.1
2014-Jul-28 09:33N 52°57' E 001°35'1413.9
2014-Jul-28 08:33N 52°47' E 001°51'1312.6
2014-Jul-28 07:33N 52°34' E 001°55'1914.6
2014-Jul-28 06:15N 52°16' E 001°45'1116.2
2014-Jul-28 05:33N 52°06' E 001°40'1514.6
2014-Jul-28 04:33N 51°56' E 001°23'3 3.2
2014-Jul-28 03:32N 51°57' E 001°18'0 0.0
2014-Jul-28 02:31N 51°57' E 001°18'0 0.0
2014-Jul-28 01:31N 51°57' E 001°18'0 0.0
2014-Jul-28 00:31N 51°57' E 001°18'0 0.0
2014-Jul-27 23:31N 51°57' E 001°18'0 0.0
2014-Jul-27 22:32N 51°57' E 001°18'0 0.0
2014-Jul-27 21:31N 51°57' E 001°18'0 0.0
2014-Jul-27 20:32N 51°57' E 001°18'0 0.0
2014-Jul-27 19:32N 51°57' E 001°18'0 0.0
2014-Jul-27 18:33N 51°57' E 001°18'3 2.8
2014-Jul-27 17:34N 51°56' E 001°22'7 7.2
2014-Jul-27 16:34N 51°57' E 001°33'5 5.1
2014-Jul-27 15:34N 51°52' E 001°36'1010.3
2014-Jul-27 14:33N 51°45' E 001°48'1413.6
2014-Jul-27 13:33N 51°32' E 001°47'1414.0
2014-Jul-27 12:33N 51°18' E 001°42'1312.6
2014-Jul-27 11:34N 51°05' E 001°38'3716.5
2014-Jul-27 09:18N 50°35' E 001°05'1316.8
2014-Jul-27 08:31N 50°28' E 000°47'1717.5
2014-Jul-27 07:33N 50°24' E 000°22'2217.0
2014-Jul-27 06:16N 50°17' W 000°11'1216.3
2014-Jul-27 05:32N 50°14' W 000°29'4714.3
2014-Jul-27 02:15N 50°01' W 001°40'9014.9
2014-Jul-26 20:11N 49°25' W 003°48'11016.5
2014-Jul-26 13:33N 48°16' W 005°57'1717.1
2014-Jul-26 12:33N 48°01' W 006°10'2016.7
2014-Jul-26 11:22N 47°43' W 006°23'50715.0
2014-Jul-25 01:29N 39°38' W 009°43'1414.5
2014-Jul-25 00:33N 39°24' W 009°43'5012.5
2014-Jul-24 20:33N 38°37' W 009°22'1414.2
2014-Jul-24 19:34N 38°43' W 009°06'0 0.0
2014-Jul-24 18:31N 38°44' W 009°06'0 0.0
2014-Jul-24 17:32N 38°44' W 009°06'0 0.0
2014-Jul-24 16:33N 38°44' W 009°06'0 0.0
2014-Jul-24 15:31N 38°44' W 009°06'0 0.0
2014-Jul-24 14:31N 38°44' W 009°06'0 0.0
2014-Jul-24 13:31N 38°44' W 009°06'0 0.0
2014-Jul-24 12:33N 38°44' W 009°06'0 0.0
2014-Jul-24 11:33N 38°44' W 009°06'0 0.0
2014-Jul-24 10:33N 38°44' W 009°06'0 0.0
2014-Jul-24 09:32N 38°44' W 009°06'0 0.0
2014-Jul-24 08:33N 38°44' W 009°06'0 0.0
2014-Jul-24 07:33N 38°44' W 009°06'2 1.7
2014-Jul-24 06:33N 38°42' W 009°08'2712.8
2014-Jul-24 04:26N 38°39' W 009°43'1615.1
2014-Jul-24 03:23N 38°55' W 009°44'156 5.1
2014-Jul-22 20:29N 41°27' W 008°58'1414.7
2014-Jul-22 19:33N 41°39' W 009°07'178 9.8
2014-Jul-22 01:26N 43°44' W 006°14'1516.5
2014-Jul-22 00:33N 43°42' W 005°54'1312.6
2014-Jul-21 23:33N 43°33' W 005°41'0 0.0
2014-Jul-21 18:34N 43°34' W 005°41'6 6.0
2014-Jul-21 17:34N 43°40' W 005°41'47013.3
2014-Jul-20 06:10N 50°29' W 000°02'1415.8
2014-Jul-20 05:18N 50°33' E 000°19'1115.0
2014-Jul-20 04:34N 50°36' E 000°36'1514.5
2014-Jul-20 03:33N 50°44' E 000°55'1815.1
2014-Jul-20 02:21N 50°55' E 001°18'1316.8
2014-Jul-20 01:33N 51°05' E 001°33'1717.4
2014-Jul-20 00:34N 51°18' E 001°51'1616.4
2014-Jul-19 23:34N 51°31' E 002°07'1615.6
2014-Jul-19 22:32N 51°43' E 002°24'2713.7
2014-Jul-19 20:33N 52°01' E 002°56'1714.9
2014-Jul-19 19:26N 52°03' E 003°23'1314.7
2014-Jul-19 18:33N 52°04' E 003°44'1414.4
2014-Jul-19 17:33N 51°59' E 004°05'2 1.5
2014-Jul-19 16:32N 51°58' E 004°03'0 0.0
2014-Jul-19 15:33N 51°58' E 004°03'0 0.0
2014-Jul-19 14:25N 51°58' E 004°03'0 0.0
2014-Jul-19 13:30N 51°58' E 004°03'0 0.0
2014-Jul-19 12:30N 51°58' E 004°03'  

Dump ship's entire track history